Patcona II — WDC2170 — position and weather

sailwx.info

Track history (hours):
 
Tides and Currents Weather Stations Pressure Air Temp Water Temp Dewpoint Dewpoint Depression Visibility Wind Speed Wind Dir Waves Ship Positions

Patcona II

Owner: Connolly-Pacific Co, long beach, CA. More information available from US FCC via Universal Licensing System and Coast Guard Vessel Documentation Center.

Last reported at 2017-Feb-19 16:30 UTC. Time now 2017-Feb-19 16:46 UTC.
Position N 29°46' W 095°06'.

; draft 9 m.

Type: Towing. MMSI: 366988960.

Date/timePositionNaut miles runAvg speedWind from/ knotsBaromVisibWave heightAir tempDewpointWater temp
2017-Feb-19 16:30N 29°46' W 095°06'0 0.0
2017-Feb-19 15:33N 29°46' W 095°06'1 0.7
2017-Feb-19 14:33N 29°46' W 095°05'0 0.1
2017-Feb-19 09:30N 29°46' W 095°06'1 0.2
2017-Feb-19 03:21N 29°45' W 095°06'4 1.0
2017-Feb-18 23:29N 29°45' W 095°11'0 0.0
2017-Feb-18 22:32N 29°45' W 095°11'0 0.0
2017-Feb-18 21:29N 29°45' W 095°11'0 0.0
2017-Feb-18 19:23N 29°45' W 095°11'0 0.0
2017-Feb-18 16:26N 29°45' W 095°10'0 0.0
2017-Feb-18 15:15N 29°45' W 095°10'1 0.1
2017-Feb-18 05:20N 29°44' W 095°09'5 6.0
2017-Feb-18 04:33N 29°43' W 095°14'2 2.3
2017-Feb-18 03:32N 29°44' W 095°17'0 0.0
2017-Feb-18 02:25N 29°44' W 095°17'0 0.0
2017-Feb-17 23:25N 29°44' W 095°17'0 0.0
2017-Feb-17 22:17N 29°44' W 095°17'0 0.0
2017-Feb-17 19:04N 29°44' W 095°17'0 0.2
2017-Feb-17 18:32N 29°44' W 095°17'2 2.3
2017-Feb-17 17:33N 29°43' W 095°15'0 0.0
2017-Feb-17 16:29N 29°43' W 095°15'0 0.0
2017-Feb-17 15:30N 29°43' W 095°15'0 0.0
2017-Feb-17 14:30N 29°43' W 095°15'1197377.3
2017-Feb-17 11:20N 33°46' W 118°13'0 0.0
2017-Feb-17 10:25N 33°46' W 118°13'0 0.0
2017-Feb-17 09:32N 33°46' W 118°13'0 0.0
2017-Feb-17 08:28N 33°46' W 118°13'0 0.0
2017-Feb-17 07:33N 33°46' W 118°13'0 0.0
2017-Feb-17 06:33N 33°46' W 118°13'11991196.4
2017-Feb-17 05:33N 29°45' W 095°11'1199130847.3
2017-Feb-17 05:33N 33°46' W 118°13'0 0.0
2017-Feb-17 04:33N 33°46' W 118°13'12021082118.8
2017-Feb-17 04:33N 29°44' W 095°08'12021198.0
2017-Feb-17 03:33N 33°46' W 118°13'1 0.8
2017-Feb-17 02:33N 33°45' W 118°13'120413933.8
2017-Feb-17 02:27N 29°45' W 095°06'12041170.8
2017-Feb-17 01:26N 33°46' W 118°13'120419611.8
2017-Feb-17 01:22N 29°45' W 095°06'12021482.6
2017-Feb-17 00:33N 33°44' W 118°11'12023994.8
2017-Feb-17 00:15N 29°45' W 095°06'0 0.0
2017-Feb-16 23:33N 29°45' W 095°06'1202227653.9
2017-Feb-16 23:33N 33°44' W 118°11'0 0.1
2017-Feb-16 22:33N 33°43' W 118°11'1201105493.4
2017-Feb-16 22:33N 29°45' W 095°06'0 0.0
2017-Feb-16 21:33N 29°45' W 095°06'1203149339.8
2017-Feb-16 21:33N 33°44' W 118°12'2 2.1
2017-Feb-16 20:33N 33°46' W 118°13'12041202.9
2017-Feb-16 19:33N 29°45' W 095°06'12042167022.6
2017-Feb-16 19:33N 33°46' W 118°13'0 0.0
2017-Feb-16 18:34N 33°46' W 118°13'1206868150.9
2017-Feb-16 18:33N 29°45' W 095°04'12061207.4
2017-Feb-16 17:34N 33°46' W 118°13'0 0.0
2017-Feb-16 16:33N 33°46' W 118°13'0 0.0
2017-Feb-16 15:33N 33°46' W 118°13'0 0.0
2017-Feb-16 14:34N 33°46' W 118°13'0 0.0
2017-Feb-16 13:33N 33°46' W 118°13'0 0.0
2017-Feb-16 12:34N 33°46' W 118°13'0 0.0
2017-Feb-16 11:34N 33°46' W 118°13'0 0.0
2017-Feb-16 10:33N 33°46' W 118°13'0 0.0
2017-Feb-16 09:33N 33°46' W 118°13'0 0.0
2017-Feb-16 08:33N 33°46' W 118°13'12074361.3
2017-Feb-16 08:17N 29°44' W 095°03'2 3.3
2017-Feb-16 07:34N 29°42' W 095°01'12091450591.7
2017-Feb-16 07:33N 33°46' W 118°13'0 0.0
2017-Feb-16 06:33N 33°46' W 118°13'1214485450.7
2017-Feb-16 06:33N 29°37' W 094°57'8 8.5
2017-Feb-16 05:33N 29°30' W 094°52'122030506.9
2017-Feb-16 05:31N 33°46' W 118°13'0 0.0
2017-Feb-16 04:33N 33°46' W 118°13'0 0.0
2017-Feb-16 03:33N 33°46' W 118°13'0 0.0
2017-Feb-16 02:33N 33°46' W 118°13'0 0.0
2017-Feb-16 01:34N 33°46' W 118°13'0 0.0
2017-Feb-16 00:33N 33°46' W 118°13'0 0.0
2017-Feb-15 23:33N 33°46' W 118°13'0 0.0
2017-Feb-15 22:34N 33°46' W 118°13'0 0.0
2017-Feb-15 21:33N 33°46' W 118°13'0 0.0
2017-Feb-15 20:33N 33°46' W 118°13'0 0.0
2017-Feb-15 19:34N 33°46' W 118°13'0 0.0
2017-Feb-15 18:34N 33°46' W 118°13'0 0.0
2017-Feb-15 17:34N 33°46' W 118°13'0 0.0
2017-Feb-15 16:33N 33°46' W 118°13'0 0.0
2017-Feb-15 15:34N 33°46' W 118°13'12264204.4
2017-Feb-15 15:16N 29°18' W 094°49'12261730.5
2017-Feb-15 14:33N 33°46' W 118°13'0 0.0
2017-Feb-15 13:34N 33°46' W 118°13'0 0.0
2017-Feb-15 12:33N 33°46' W 118°13'0 0.0
2017-Feb-15 11:34N 33°46' W 118°13'0 0.0
2017-Feb-15 10:34N 33°46' W 118°13'0 0.0
2017-Feb-15 09:34N 33°46' W 118°13'0 0.0
2017-Feb-15 08:34N 33°46' W 118°13'0 0.0
2017-Feb-15 07:33N 33°46' W 118°13'0 0.0
2017-Feb-15 06:34N 33°46' W 118°13'0 0.0
2017-Feb-15 05:33N 33°46' W 118°13'0 0.0
2017-Feb-15 04:33N 33°46' W 118°13'0 0.0
2017-Feb-15 03:33N 33°46' W 118°13'3 3.5
2017-Feb-15 02:33N 33°43' W 118°15'5 4.9
2017-Feb-15 01:33N 33°38' W 118°14'6 6.1
2017-Feb-15 00:33N 33°32' W 118°16'6 6.4
2017-Feb-14 23:34N 33°26' W 118°17'6 6.1
2017-Feb-14 22:33N 33°20' W 118°18'4632.9
2017-Feb-14 21:09N 34°04' W 118°32'4858.1
2017-Feb-14 20:19N 33°27' W 117°55'3848.9
2017-Feb-14 19:33N 32°53' W 118°14'2726.7
2017-Feb-14 18:33N 33°19' W 118°18'0 0.0
2017-Feb-14 17:33N 33°19' W 118°18'0 0.1
2017-Feb-14 16:33N 33°19' W 118°18'0 0.4
2017-Feb-14 15:33N 33°19' W 118°18'5 5.1
2017-Feb-14 14:33N 33°24' W 118°16'7 7.1
2017-Feb-14 13:32N 33°31' W 118°15'7 7.1
2017-Feb-14 12:33N 33°38' W 118°13'6 6.3
2017-Feb-14 11:33N 33°44' W 118°12'2 2.4
2017-Feb-14 10:33N 33°46' W 118°13'0 0.0
2017-Feb-14 09:33N 33°46' W 118°13'0 0.0
2017-Feb-14 08:33N 33°46' W 118°13'0 0.0
2017-Feb-14 07:33N 33°46' W 118°13'0 0.0
2017-Feb-14 06:33N 33°46' W 118°13'0 0.0
2017-Feb-14 05:33N 33°46' W 118°13'0 0.0
2017-Feb-14 04:33N 33°46' W 118°13'0 0.0
2017-Feb-14 03:33N 33°46' W 118°13'12211100.7
2017-Feb-14 02:27N 29°28' W 094°51'6 6.9
2017-Feb-14 01:33N 29°33' W 094°55'12177349.7
2017-Feb-14 01:23N 33°46' W 118°13'12111454.8
2017-Feb-14 00:34N 29°37' W 095°00'12112391.7
2017-Feb-14 00:03N 33°46' W 118°13'0 0.0
2017-Feb-13 23:33N 33°46' W 118°13'12114360051.3
2017-Feb-13 23:33N 29°37' W 095°00'0 0.0
2017-Feb-13 22:33N 29°37' W 095°00'121128312.5
2017-Feb-13 22:31N 33°46' W 118°13'0 0.0
2017-Feb-13 21:33N 33°46' W 118°13'1211872029.1
2017-Feb-13 21:33N 29°37' W 095°00'0 0.0
2017-Feb-13 20:33N 29°37' W 095°00'1211622871.8
2017-Feb-13 20:33N 33°46' W 118°13'0 0.0
2017-Feb-13 19:33N 33°46' W 118°13'1211335393.4
2017-Feb-13 19:33N 29°37' W 095°00'12111215.9
2017-Feb-13 18:33N 33°46' W 118°13'12131091817.8
2017-Feb-13 18:33N 29°38' W 094°58'12131214.5
2017-Feb-13 17:33N 33°46' W 118°13'120982087.9
2017-Feb-13 17:33N 29°43' W 095°01'12091222.8
2017-Feb-13 16:33N 33°46' W 118°13'12028797.8
2017-Feb-13 16:25N 29°44' W 095°08'12021397.6
2017-Feb-13 15:33N 33°46' W 118°13'119812501.8
2017-Feb-13 15:28N 29°44' W 095°13'11981308.6
2017-Feb-13 14:33N 33°46' W 118°13'119833178.0
2017-Feb-13 14:31N 29°44' W 095°13'11981258.2
2017-Feb-13 13:33N 33°46' W 118°13'119826140.2
2017-Feb-13 13:31N 29°44' W 095°13'11981256.4
2017-Feb-13 12:34N 33°46' W 118°13'0 0.0
2017-Feb-13 11:33N 33°46' W 118°13'0 0.0
2017-Feb-13 10:33N 33°46' W 118°13'11986092.0
2017-Feb-13 10:22N 29°44' W 095°13'11981451.3
2017-Feb-13 09:32N 33°46' W 118°13'11986803.1
2017-Feb-13 09:22N 29°44' W 095°13'11981484.7
2017-Feb-13 08:33N 33°46' W 118°13'0 0.0
2017-Feb-13 07:34N 33°46' W 118°13'0 0.0
2017-Feb-13 06:33N 33°46' W 118°13'0 0.0
2017-Feb-13 05:31N 33°46' W 118°13'0 0.0
2017-Feb-13 04:33N 33°46' W 118°13'0 0.0
2017-Feb-13 03:33N 33°46' W 118°13'0 0.0
2017-Feb-13 02:33N 33°46' W 118°13'119816653.1
2017-Feb-13 02:29N 29°44' W 095°13'11981283.3
2017-Feb-13 01:33N 33°46' W 118°13'120020761.0
2017-Feb-13 01:29N 29°45' W 095°11'3 2.8
2017-Feb-13 00:30N 29°44' W 095°08'0 0.0
2017-Feb-12 23:30N 29°44' W 095°08'0 0.0
2017-Feb-12 22:33N 29°44' W 095°08'1 1.4
2017-Feb-12 21:34N 29°44' W 095°07'12034071.9
2017-Feb-12 21:16N 33°46' W 118°13'12081715.5
2017-Feb-12 20:34N 29°43' W 095°01'12081450133.1
2017-Feb-12 20:33N 33°46' W 118°13'12131214.2
2017-Feb-12 19:34N 29°37' W 094°58'12131455857.3
2017-Feb-12 19:33N 33°46' W 118°13'12091192.4
2017-Feb-12 18:33N 29°42' W 095°01'120983673.5
2017-Feb-12 18:32N 33°46' W 118°13'0 0.0
2017-Feb-12 17:33N 33°46' W 118°13'120570.9
2017-Feb-12 00:33N 29°45' W 095°04'1205119.5
2017-Feb-11 14:28N 33°46' W 118°13'12041283.8
2017-Feb-11 13:32N 29°46' W 095°05'12041184.5
2017-Feb-11 12:31N 33°46' W 118°13'119920644.7
2017-Feb-11 12:27N 29°44' W 095°13'0 0.0
2017-Feb-11 11:33N 29°44' W 095°13'119932687.4
2017-Feb-11 11:31N 33°46' W 118°13'11991109.2
2017-Feb-11 10:26N 29°44' W 095°13'0 0.0
2017-Feb-11 09:33N 29°44' W 095°13'11995198.5
2017-Feb-11 09:19N 33°46' W 118°13'11991503.4
2017-Feb-11 08:31N 29°44' W 095°13'11991222.0
2017-Feb-11 07:32N 33°46' W 118°13'11995760.7
2017-Feb-11 07:20N 29°44' W 095°13'11991501.8
2017-Feb-11 06:32N 33°46' W 118°13'0 0.0
2017-Feb-11 05:30N 33°46' W 118°13'119911444.9
2017-Feb-11 05:24N 29°44' W 095°13'0 0.0
2017-Feb-11 04:16N 29°44' W 095°13'0 0.0
2017-Feb-11 03:33N 29°44' W 095°13'0 0.0
2017-Feb-11 02:24N 29°44' W 095°13'0 0.0
2017-Feb-11 00:29N 29°44' W 095°13'0 0.0
2017-Feb-10 23:30N 29°44' W 095°13'2 2.2
2017-Feb-10 22:33N 29°45' W 095°11'12001118.7
2017-Feb-10 21:28N 33°46' W 118°13'0 0.0
2017-Feb-10 18:32N 33°46' W 118°13'0 0.0
2017-Feb-10 17:28N 33°46' W 118°13'0 0.0
2017-Feb-10 16:33N 33°46' W 118°13'0 0.0
2017-Feb-10 15:33N 33°46' W 118°13'0 0.0
2017-Feb-10 14:33N 33°46' W 118°13'12029449.7
2017-Feb-10 14:25N 29°44' W 095°08'12021387.2
2017-Feb-10 13:33N 33°46' W 118°13'11963906.2
2017-Feb-10 13:15N 29°44' W 095°16'11961724.6
2017-Feb-10 12:34N 33°46' W 118°13'0 0.0
2017-Feb-10 11:33N 33°46' W 118°13'0 0.0
2017-Feb-10 09:18N 33°46' W 118°13'0 0.0
2017-Feb-10 08:24N 33°46' W 118°13'0 0.0
2017-Feb-10 07:33N 33°46' W 118°13'0 0.0
2017-Feb-10 06:32N 33°46' W 118°13'0 0.0
2017-Feb-10 05:29N 33°46' W 118°13'0 0.0
2017-Feb-10 04:30N 33°46' W 118°13'11953718.1
2017-Feb-10 04:11N 29°44' W 095°17'3 5.0
2017-Feb-10 03:33N 29°44' W 095°13'119819085.2
2017-Feb-10 03:29N 33°46' W 118°13'0 0.0
2017-Feb-10 02:32N 33°46' W 118°13'12047167.2
2017-Feb-10 02:22N 29°46' W 095°05'12041487.0
2017-Feb-10 01:33N 33°46' W 118°13'121041486.5
2017-Feb-10 01:32N 29°42' W 094°60'12101247.1
2017-Feb-10 00:33N 33°46' W 118°13'12102727.1
2017-Feb-10 00:07N 29°41' W 095°00'12102162.5
2017-Feb-09 23:33N 33°46' W 118°13'121028842.4
2017-Feb-09 23:31N 29°41' W 095°00'12101266.8
2017-Feb-09 22:33N 33°46' W 118°13'121033501.6
2017-Feb-09 22:31N 29°41' W 095°00'0 0.3
2017-Feb-09 21:33N 29°41' W 095°00'12102484.7
2017-Feb-09 21:04N 33°46' W 118°13'0 0.0
2017-Feb-09 20:33N 33°46' W 118°13'12104355637.5
2017-Feb-09 20:33N 29°41' W 095°00'0 0.0
2017-Feb-09 19:33N 29°41' W 095°00'121018148.7
2017-Feb-09 19:29N 33°46' W 118°13'12101296.4
2017-Feb-09 18:33N 29°41' W 095°00'121042290.5
2017-Feb-09 18:32N 33°46' W 118°13'0 0.0
2017-Feb-09 17:30N 33°46' W 118°13'12044477.4
2017-Feb-09 17:14N 29°46' W 095°06'1 1.1
2017-Feb-09 16:31N 29°47' W 095°06'1203135373.5
2017-Feb-09 16:31N 33°46' W 118°13'  
Track history (hours):
 
Tides and Currents Weather Stations Pressure Air Temp Water Temp Dewpoint Dewpoint Depression Visibility Wind Speed Wind Dir Waves Ship Positions

Patcona II

Owner: Connolly-Pacific Co, long beach, CA. More information available from US FCC via Universal Licensing System and Coast Guard Vessel Documentation Center.

Last reported at 2017-Feb-19 16:30 UTC. Time now 2017-Feb-19 16:46 UTC.
Position N 29°46' W 095°06'.

; draft 9 m.

Type: Towing. MMSI: 366988960.

Date/timePositionNaut miles runAvg speedWind from/ knotsBaromVisibWave heightAir tempDewpointWater temp
2017-Feb-19 16:30N 29°46' W 095°06'0 0.0
2017-Feb-19 15:33N 29°46' W 095°06'1 0.7
2017-Feb-19 14:33N 29°46' W 095°05'0 0.1
2017-Feb-19 09:30N 29°46' W 095°06'1 0.2
2017-Feb-19 03:21N 29°45' W 095°06'4 1.0
2017-Feb-18 23:29N 29°45' W 095°11'0 0.0
2017-Feb-18 22:32N 29°45' W 095°11'0 0.0
2017-Feb-18 21:29N 29°45' W 095°11'0 0.0
2017-Feb-18 19:23N 29°45' W 095°11'0 0.0
2017-Feb-18 16:26N 29°45' W 095°10'0 0.0
2017-Feb-18 15:15N 29°45' W 095°10'1 0.1
2017-Feb-18 05:20N 29°44' W 095°09'5 6.0
2017-Feb-18 04:33N 29°43' W 095°14'2 2.3
2017-Feb-18 03:32N 29°44' W 095°17'0 0.0
2017-Feb-18 02:25N 29°44' W 095°17'0 0.0
2017-Feb-17 23:25N 29°44' W 095°17'0 0.0
2017-Feb-17 22:17N 29°44' W 095°17'0 0.0
2017-Feb-17 19:04N 29°44' W 095°17'0 0.2
2017-Feb-17 18:32N 29°44' W 095°17'2 2.3
2017-Feb-17 17:33N 29°43' W 095°15'0 0.0
2017-Feb-17 16:29N 29°43' W 095°15'0 0.0
2017-Feb-17 15:30N 29°43' W 095°15'0 0.0
2017-Feb-17 14:30N 29°43' W 095°15'1197377.3
2017-Feb-17 11:20N 33°46' W 118°13'0 0.0
2017-Feb-17 10:25N 33°46' W 118°13'0 0.0
2017-Feb-17 09:32N 33°46' W 118°13'0 0.0
2017-Feb-17 08:28N 33°46' W 118°13'0 0.0
2017-Feb-17 07:33N 33°46' W 118°13'0 0.0
2017-Feb-17 06:33N 33°46' W 118°13'11991196.4
2017-Feb-17 05:33N 29°45' W 095°11'1199130847.3
2017-Feb-17 05:33N 33°46' W 118°13'0 0.0
2017-Feb-17 04:33N 33°46' W 118°13'12021082118.8
2017-Feb-17 04:33N 29°44' W 095°08'12021198.0
2017-Feb-17 03:33N 33°46' W 118°13'1 0.8
2017-Feb-17 02:33N 33°45' W 118°13'120413933.8
2017-Feb-17 02:27N 29°45' W 095°06'12041170.8
2017-Feb-17 01:26N 33°46' W 118°13'120419611.8
2017-Feb-17 01:22N 29°45' W 095°06'12021482.6
2017-Feb-17 00:33N 33°44' W 118°11'12023994.8
2017-Feb-17 00:15N 29°45' W 095°06'0 0.0
2017-Feb-16 23:33N 29°45' W 095°06'1202227653.9
2017-Feb-16 23:33N 33°44' W 118°11'0 0.1
2017-Feb-16 22:33N 33°43' W 118°11'1201105493.4
2017-Feb-16 22:33N 29°45' W 095°06'0 0.0
2017-Feb-16 21:33N 29°45' W 095°06'1203149339.8
2017-Feb-16 21:33N 33°44' W 118°12'2 2.1
2017-Feb-16 20:33N 33°46' W 118°13'12041202.9
2017-Feb-16 19:33N 29°45' W 095°06'12042167022.6
2017-Feb-16 19:33N 33°46' W 118°13'0 0.0
2017-Feb-16 18:34N 33°46' W 118°13'1206868150.9
2017-Feb-16 18:33N 29°45' W 095°04'12061207.4
2017-Feb-16 17:34N 33°46' W 118°13'0 0.0
2017-Feb-16 16:33N 33°46' W 118°13'0 0.0
2017-Feb-16 15:33N 33°46' W 118°13'0 0.0
2017-Feb-16 14:34N 33°46' W 118°13'0 0.0
2017-Feb-16 13:33N 33°46' W 118°13'0 0.0
2017-Feb-16 12:34N 33°46' W 118°13'0 0.0
2017-Feb-16 11:34N 33°46' W 118°13'0 0.0
2017-Feb-16 10:33N 33°46' W 118°13'0 0.0
2017-Feb-16 09:33N 33°46' W 118°13'0 0.0
2017-Feb-16 08:33N 33°46' W 118°13'12074361.3
2017-Feb-16 08:17N 29°44' W 095°03'2 3.3
2017-Feb-16 07:34N 29°42' W 095°01'12091450591.7
2017-Feb-16 07:33N 33°46' W 118°13'0 0.0
2017-Feb-16 06:33N 33°46' W 118°13'1214485450.7
2017-Feb-16 06:33N 29°37' W 094°57'8 8.5
2017-Feb-16 05:33N 29°30' W 094°52'122030506.9
2017-Feb-16 05:31N 33°46' W 118°13'0 0.0
2017-Feb-16 04:33N 33°46' W 118°13'0 0.0
2017-Feb-16 03:33N 33°46' W 118°13'0 0.0
2017-Feb-16 02:33N 33°46' W 118°13'0 0.0
2017-Feb-16 01:34N 33°46' W 118°13'0 0.0
2017-Feb-16 00:33N 33°46' W 118°13'0 0.0
2017-Feb-15 23:33N 33°46' W 118°13'0 0.0
2017-Feb-15 22:34N 33°46' W 118°13'0 0.0
2017-Feb-15 21:33N 33°46' W 118°13'0 0.0
2017-Feb-15 20:33N 33°46' W 118°13'0 0.0
2017-Feb-15 19:34N 33°46' W 118°13'0 0.0
2017-Feb-15 18:34N 33°46' W 118°13'0 0.0
2017-Feb-15 17:34N 33°46' W 118°13'0 0.0
2017-Feb-15 16:33N 33°46' W 118°13'0 0.0
2017-Feb-15 15:34N 33°46' W 118°13'12264204.4
2017-Feb-15 15:16N 29°18' W 094°49'12261730.5
2017-Feb-15 14:33N 33°46' W 118°13'0 0.0
2017-Feb-15 13:34N 33°46' W 118°13'0 0.0
2017-Feb-15 12:33N 33°46' W 118°13'0 0.0
2017-Feb-15 11:34N 33°46' W 118°13'0 0.0
2017-Feb-15 10:34N 33°46' W 118°13'0 0.0
2017-Feb-15 09:34N 33°46' W 118°13'0 0.0
2017-Feb-15 08:34N 33°46' W 118°13'0 0.0
2017-Feb-15 07:33N 33°46' W 118°13'0 0.0
2017-Feb-15 06:34N 33°46' W 118°13'0 0.0
2017-Feb-15 05:33N 33°46' W 118°13'0 0.0
2017-Feb-15 04:33N 33°46' W 118°13'0 0.0
2017-Feb-15 03:33N 33°46' W 118°13'3 3.5
2017-Feb-15 02:33N 33°43' W 118°15'5 4.9
2017-Feb-15 01:33N 33°38' W 118°14'6 6.1
2017-Feb-15 00:33N 33°32' W 118°16'6 6.4
2017-Feb-14 23:34N 33°26' W 118°17'6 6.1
2017-Feb-14 22:33N 33°20' W 118°18'4632.9
2017-Feb-14 21:09N 34°04' W 118°32'4858.1
2017-Feb-14 20:19N 33°27' W 117°55'3848.9
2017-Feb-14 19:33N 32°53' W 118°14'2726.7
2017-Feb-14 18:33N 33°19' W 118°18'0 0.0
2017-Feb-14 17:33N 33°19' W 118°18'0 0.1
2017-Feb-14 16:33N 33°19' W 118°18'0 0.4
2017-Feb-14 15:33N 33°19' W 118°18'5 5.1
2017-Feb-14 14:33N 33°24' W 118°16'7 7.1
2017-Feb-14 13:32N 33°31' W 118°15'7 7.1
2017-Feb-14 12:33N 33°38' W 118°13'6 6.3
2017-Feb-14 11:33N 33°44' W 118°12'2 2.4
2017-Feb-14 10:33N 33°46' W 118°13'0 0.0
2017-Feb-14 09:33N 33°46' W 118°13'0 0.0
2017-Feb-14 08:33N 33°46' W 118°13'0 0.0
2017-Feb-14 07:33N 33°46' W 118°13'0 0.0
2017-Feb-14 06:33N 33°46' W 118°13'0 0.0
2017-Feb-14 05:33N 33°46' W 118°13'0 0.0
2017-Feb-14 04:33N 33°46' W 118°13'0 0.0
2017-Feb-14 03:33N 33°46' W 118°13'12211100.7
2017-Feb-14 02:27N 29°28' W 094°51'6 6.9
2017-Feb-14 01:33N 29°33' W 094°55'12177349.7
2017-Feb-14 01:23N 33°46' W 118°13'12111454.8
2017-Feb-14 00:34N 29°37' W 095°00'12112391.7
2017-Feb-14 00:03N 33°46' W 118°13'0 0.0
2017-Feb-13 23:33N 33°46' W 118°13'12114360051.3
2017-Feb-13 23:33N 29°37' W 095°00'0 0.0
2017-Feb-13 22:33N 29°37' W 095°00'121128312.5
2017-Feb-13 22:31N 33°46' W 118°13'0 0.0
2017-Feb-13 21:33N 33°46' W 118°13'1211872029.1
2017-Feb-13 21:33N 29°37' W 095°00'0 0.0
2017-Feb-13 20:33N 29°37' W 095°00'1211622871.8
2017-Feb-13 20:33N 33°46' W 118°13'0 0.0
2017-Feb-13 19:33N 33°46' W 118°13'1211335393.4
2017-Feb-13 19:33N 29°37' W 095°00'12111215.9
2017-Feb-13 18:33N 33°46' W 118°13'12131091817.8
2017-Feb-13 18:33N 29°38' W 094°58'12131214.5
2017-Feb-13 17:33N 33°46' W 118°13'120982087.9
2017-Feb-13 17:33N 29°43' W 095°01'12091222.8
2017-Feb-13 16:33N 33°46' W 118°13'12028797.8
2017-Feb-13 16:25N 29°44' W 095°08'12021397.6
2017-Feb-13 15:33N 33°46' W 118°13'119812501.8
2017-Feb-13 15:28N 29°44' W 095°13'11981308.6
2017-Feb-13 14:33N 33°46' W 118°13'119833178.0
2017-Feb-13 14:31N 29°44' W 095°13'11981258.2
2017-Feb-13 13:33N 33°46' W 118°13'119826140.2
2017-Feb-13 13:31N 29°44' W 095°13'11981256.4
2017-Feb-13 12:34N 33°46' W 118°13'0 0.0
2017-Feb-13 11:33N 33°46' W 118°13'0 0.0
2017-Feb-13 10:33N 33°46' W 118°13'11986092.0
2017-Feb-13 10:22N 29°44' W 095°13'11981451.3
2017-Feb-13 09:32N 33°46' W 118°13'11986803.1
2017-Feb-13 09:22N 29°44' W 095°13'11981484.7
2017-Feb-13 08:33N 33°46' W 118°13'0 0.0
2017-Feb-13 07:34N 33°46' W 118°13'0 0.0
2017-Feb-13 06:33N 33°46' W 118°13'0 0.0
2017-Feb-13 05:31N 33°46' W 118°13'0 0.0
2017-Feb-13 04:33N 33°46' W 118°13'0 0.0
2017-Feb-13 03:33N 33°46' W 118°13'0 0.0
2017-Feb-13 02:33N 33°46' W 118°13'119816653.1
2017-Feb-13 02:29N 29°44' W 095°13'11981283.3
2017-Feb-13 01:33N 33°46' W 118°13'120020761.0
2017-Feb-13 01:29N 29°45' W 095°11'3 2.8
2017-Feb-13 00:30N 29°44' W 095°08'0 0.0
2017-Feb-12 23:30N 29°44' W 095°08'0 0.0
2017-Feb-12 22:33N 29°44' W 095°08'1 1.4
2017-Feb-12 21:34N 29°44' W 095°07'12034071.9
2017-Feb-12 21:16N 33°46' W 118°13'12081715.5
2017-Feb-12 20:34N 29°43' W 095°01'12081450133.1
2017-Feb-12 20:33N 33°46' W 118°13'12131214.2
2017-Feb-12 19:34N 29°37' W 094°58'12131455857.3
2017-Feb-12 19:33N 33°46' W 118°13'12091192.4
2017-Feb-12 18:33N 29°42' W 095°01'120983673.5
2017-Feb-12 18:32N 33°46' W 118°13'0 0.0
2017-Feb-12 17:33N 33°46' W 118°13'120570.9
2017-Feb-12 00:33N 29°45' W 095°04'1205119.5
2017-Feb-11 14:28N 33°46' W 118°13'12041283.8
2017-Feb-11 13:32N 29°46' W 095°05'12041184.5
2017-Feb-11 12:31N 33°46' W 118°13'119920644.7
2017-Feb-11 12:27N 29°44' W 095°13'0 0.0
2017-Feb-11 11:33N 29°44' W 095°13'119932687.4
2017-Feb-11 11:31N 33°46' W 118°13'11991109.2
2017-Feb-11 10:26N 29°44' W 095°13'0 0.0
2017-Feb-11 09:33N 29°44' W 095°13'11995198.5
2017-Feb-11 09:19N 33°46' W 118°13'11991503.4
2017-Feb-11 08:31N 29°44' W 095°13'11991222.0
2017-Feb-11 07:32N 33°46' W 118°13'11995760.7
2017-Feb-11 07:20N 29°44' W 095°13'11991501.8
2017-Feb-11 06:32N 33°46' W 118°13'0 0.0
2017-Feb-11 05:30N 33°46' W 118°13'119911444.9
2017-Feb-11 05:24N 29°44' W 095°13'0 0.0
2017-Feb-11 04:16N 29°44' W 095°13'0 0.0
2017-Feb-11 03:33N 29°44' W 095°13'0 0.0
2017-Feb-11 02:24N 29°44' W 095°13'0 0.0
2017-Feb-11 00:29N 29°44' W 095°13'0 0.0
2017-Feb-10 23:30N 29°44' W 095°13'2 2.2
2017-Feb-10 22:33N 29°45' W 095°11'12001118.7
2017-Feb-10 21:28N 33°46' W 118°13'0 0.0
2017-Feb-10 18:32N 33°46' W 118°13'0 0.0
2017-Feb-10 17:28N 33°46' W 118°13'0 0.0
2017-Feb-10 16:33N 33°46' W 118°13'0 0.0
2017-Feb-10 15:33N 33°46' W 118°13'0 0.0
2017-Feb-10 14:33N 33°46' W 118°13'12029449.7
2017-Feb-10 14:25N 29°44' W 095°08'12021387.2
2017-Feb-10 13:33N 33°46' W 118°13'11963906.2
2017-Feb-10 13:15N 29°44' W 095°16'11961724.6
2017-Feb-10 12:34N 33°46' W 118°13'0 0.0
2017-Feb-10 11:33N 33°46' W 118°13'0 0.0
2017-Feb-10 09:18N 33°46' W 118°13'0 0.0
2017-Feb-10 08:24N 33°46' W 118°13'0 0.0
2017-Feb-10 07:33N 33°46' W 118°13'0 0.0
2017-Feb-10 06:32N 33°46' W 118°13'0 0.0
2017-Feb-10 05:29N 33°46' W 118°13'0 0.0
2017-Feb-10 04:30N 33°46' W 118°13'11953718.1
2017-Feb-10 04:11N 29°44' W 095°17'3 5.0
2017-Feb-10 03:33N 29°44' W 095°13'119819085.2
2017-Feb-10 03:29N 33°46' W 118°13'0 0.0
2017-Feb-10 02:32N 33°46' W 118°13'12047167.2
2017-Feb-10 02:22N 29°46' W 095°05'12041487.0
2017-Feb-10 01:33N 33°46' W 118°13'121041486.5
2017-Feb-10 01:32N 29°42' W 094°60'12101247.1
2017-Feb-10 00:33N 33°46' W 118°13'12102727.1
2017-Feb-10 00:07N 29°41' W 095°00'12102162.5
2017-Feb-09 23:33N 33°46' W 118°13'121028842.4
2017-Feb-09 23:31N 29°41' W 095°00'12101266.8
2017-Feb-09 22:33N 33°46' W 118°13'121033501.6
2017-Feb-09 22:31N 29°41' W 095°00'0 0.3
2017-Feb-09 21:33N 29°41' W 095°00'12102484.7
2017-Feb-09 21:04N 33°46' W 118°13'0 0.0
2017-Feb-09 20:33N 33°46' W 118°13'12104355637.5
2017-Feb-09 20:33N 29°41' W 095°00'0 0.0
2017-Feb-09 19:33N 29°41' W 095°00'121018148.7
2017-Feb-09 19:29N 33°46' W 118°13'12101296.4
2017-Feb-09 18:33N 29°41' W 095°00'121042290.5
2017-Feb-09 18:32N 33°46' W 118°13'0 0.0
2017-Feb-09 17:30N 33°46' W 118°13'12044477.4
2017-Feb-09 17:14N 29°46' W 095°06'1 1.1
2017-Feb-09 16:31N 29°47' W 095°06'1203135373.5
2017-Feb-09 16:31N 33°46' W 118°13'  

Dump ship's entire track history